createdAt,value
2022-09-07T00:01:25.775Z,24.97
2022-09-07T00:04:28.096Z,24.92
2022-09-07T00:07:30.673Z,24.93
2022-09-07T00:10:32.814Z,24.97
2022-09-07T00:13:36.947Z,24.93
2022-09-07T00:16:39.067Z,24.95
2022-09-07T00:19:41.208Z,24.92
2022-09-07T00:22:43.296Z,24.90
2022-09-07T00:25:45.375Z,24.97
2022-09-07T00:28:48.254Z,24.97
2022-09-07T00:31:50.371Z,25.00
2022-09-07T00:34:52.593Z,25.00
2022-09-07T00:37:54.672Z,24.99
2022-09-07T00:40:56.855Z,24.99
2022-09-07T00:44:20.406Z,24.97
2022-09-07T00:47:34.161Z,24.95
2022-09-07T00:50:44.047Z,24.88
2022-09-07T00:53:59.972Z,24.84
2022-09-07T00:57:02.273Z,24.83
2022-09-07T01:00:05.825Z,24.80
2022-09-07T01:03:09.763Z,24.80
2022-09-07T01:06:21.946Z,24.80
2022-09-07T01:09:27.026Z,24.79
2022-09-07T01:12:29.082Z,24.78
2022-09-07T01:15:44.879Z,24.78
2022-09-07T01:19:13.921Z,24.79
2022-09-07T01:22:18.933Z,24.77
2022-09-07T01:25:44.416Z,24.75
2022-09-07T01:28:54.442Z,24.78
2022-09-07T01:32:27.629Z,24.79
2022-09-07T01:35:55.293Z,24.80
2022-09-07T01:39:01.404Z,24.78
2022-09-07T01:42:12.965Z,24.79
2022-09-07T01:45:19.715Z,24.78
2022-09-07T01:48:23.139Z,24.76
2022-09-07T01:51:31.772Z,24.75
2022-09-07T01:54:40.450Z,24.77
2022-09-07T01:58:24.838Z,24.71
2022-09-07T02:01:44.112Z,24.74
2022-09-07T02:04:57.988Z,24.75
2022-09-07T02:08:06.782Z,24.76
2022-09-07T02:11:13.563Z,24.70
2022-09-07T02:14:24.787Z,24.72
2022-09-07T02:17:38.610Z,24.74
2022-09-07T02:20:45.071Z,24.70
2022-09-07T02:23:57.926Z,24.66
2022-09-07T02:27:09.035Z,24.65
2022-09-07T02:30:11.778Z,24.69
2022-09-07T02:33:13.878Z,24.69
2022-09-07T02:36:20.150Z,24.72
2022-09-07T02:39:22.268Z,24.72
2022-09-07T02:42:24.664Z,24.69
2022-09-07T02:45:33.041Z,24.64
2022-09-07T02:49:08.255Z,24.68
2022-09-07T02:52:39.640Z,24.66
2022-09-07T02:56:06.308Z,24.69
2022-09-07T02:59:32.967Z,24.68
2022-09-07T03:03:00.365Z,24.65
2022-09-07T03:06:07.735Z,24.65
2022-09-07T03:09:25.296Z,24.65
2022-09-07T03:12:39.759Z,24.65
2022-09-07T03:15:41.833Z,24.63
2022-09-07T03:18:44.661Z,24.62
2022-09-07T03:21:47.029Z,24.64
2022-09-07T03:24:49.135Z,24.63
2022-09-07T03:27:51.337Z,24.60
2022-09-07T03:30:53.428Z,24.61
2022-09-07T03:33:55.564Z,24.62
2022-09-07T03:36:57.730Z,24.60
2022-09-07T03:39:59.779Z,24.59
2022-09-07T03:43:02.141Z,24.56
2022-09-07T03:46:06.469Z,24.57
2022-09-07T03:49:08.612Z,24.55
2022-09-07T03:52:10.957Z,24.55
2022-09-07T03:55:13.240Z,24.55
2022-09-07T03:58:15.291Z,24.53
2022-09-07T04:01:21.205Z,24.54
2022-09-07T04:04:23.335Z,24.51
2022-09-07T04:07:25.403Z,24.53
2022-09-07T04:10:27.766Z,24.55
2022-09-07T04:13:30.972Z,24.49
2022-09-07T04:16:33.181Z,24.48
2022-09-07T04:19:35.367Z,24.50
2022-09-07T04:22:37.404Z,24.49
2022-09-07T04:25:47.034Z,24.48
2022-09-07T04:28:49.434Z,24.46
2022-09-07T04:31:51.481Z,24.45
2022-09-07T04:34:54.412Z,24.44
2022-09-07T04:37:56.449Z,24.46
2022-09-07T04:41:08.275Z,24.45
2022-09-07T04:44:14.794Z,24.49
2022-09-07T04:47:18.890Z,24.44
2022-09-07T04:50:20.985Z,24.43
2022-09-07T04:53:23.052Z,24.39
2022-09-07T04:56:25.688Z,24.39
2022-09-07T04:59:27.864Z,24.43
2022-09-07T05:02:29.946Z,24.43
2022-09-07T05:05:32.059Z,24.40
2022-09-07T05:08:39.607Z,24.40
2022-09-07T05:11:41.944Z,24.39
2022-09-07T05:14:44.015Z,24.38
2022-09-07T05:17:46.116Z,24.40
2022-09-07T05:20:48.198Z,24.38
2022-09-07T05:23:52.359Z,24.38
2022-09-07T05:26:54.564Z,24.36
2022-09-07T05:33:01.997Z,24.34
2022-09-07T05:36:06.131Z,24.34
2022-09-07T05:39:09.154Z,24.34
2022-09-07T05:42:11.243Z,24.32
2022-09-07T05:45:13.330Z,24.33
2022-09-07T05:48:15.459Z,24.30
2022-09-07T05:51:17.541Z,24.31
2022-09-07T05:54:19.629Z,23.76
2022-09-07T05:57:21.783Z,23.53
2022-09-07T06:00:24.196Z,23.49
2022-09-07T06:03:26.553Z,23.47
2022-09-07T06:06:29.434Z,23.44
2022-09-07T06:09:31.552Z,23.35
2022-09-07T06:12:33.920Z,23.39
2022-09-07T06:15:36.087Z,23.44
2022-09-07T06:18:41.085Z,23.54
2022-09-07T06:21:43.491Z,23.56
2022-09-07T06:24:45.577Z,23.59
2022-09-07T06:27:49.234Z,23.61
2022-09-07T06:30:51.317Z,23.67
2022-09-07T06:33:55.598Z,23.73
2022-09-07T06:36:57.678Z,23.77
2022-09-07T06:39:59.829Z,23.80
2022-09-07T06:43:01.911Z,23.76
2022-09-07T06:49:27.242Z,23.74
2022-09-07T06:52:29.572Z,23.77
2022-09-07T06:55:31.715Z,23.80
2022-09-07T06:58:35.511Z,23.74
2022-09-07T07:01:39.107Z,23.73
2022-09-07T07:04:41.532Z,23.69
2022-09-07T07:07:46.818Z,23.73
2022-09-07T07:10:49.432Z,23.85
2022-09-07T07:13:51.486Z,23.92
2022-09-07T07:16:53.668Z,23.97
2022-09-07T07:19:55.704Z,24.01
2022-09-07T07:22:57.735Z,24.16
2022-09-07T07:26:14.146Z,24.20
2022-09-07T07:29:18.708Z,24.12
2022-09-07T07:32:21.615Z,24.05
2022-09-07T07:35:23.878Z,24.16
2022-09-07T07:41:57.507Z,24.21
2022-09-07T07:48:29.300Z,24.34
2022-09-07T07:51:31.775Z,24.36
2022-09-07T07:54:53.382Z,24.46
2022-09-07T07:57:55.363Z,24.38
2022-09-07T08:01:04.051Z,24.51
2022-09-07T08:04:06.092Z,24.64
2022-09-07T08:07:11.850Z,24.73
2022-09-07T08:10:13.996Z,24.72
2022-09-07T08:13:17.085Z,24.70
2022-09-07T08:16:19.426Z,24.72
2022-09-07T08:19:21.670Z,24.77
2022-09-07T08:22:23.660Z,24.84
2022-09-07T08:25:25.684Z,24.83
2022-09-07T08:28:29.837Z,24.87
2022-09-07T08:31:31.919Z,24.92
2022-09-07T08:34:36.346Z,25.02
2022-09-07T08:37:38.393Z,25.08
2022-09-07T08:40:40.778Z,25.08
2022-09-07T08:43:49.231Z,25.16
2022-09-07T08:47:21.639Z,25.21
2022-09-07T08:50:39.059Z,25.34
2022-09-07T08:53:48.496Z,25.25
2022-09-07T09:00:18.098Z,25.31
2022-09-07T09:03:32.461Z,25.33
2022-09-07T09:07:05.230Z,25.35
2022-09-07T09:10:19.377Z,25.33
2022-09-07T09:13:56.822Z,25.43
2022-09-07T09:17:04.169Z,25.43
2022-09-07T09:20:15.393Z,25.50
2022-09-07T09:23:19.764Z,25.62
2022-09-07T09:26:24.763Z,25.62
2022-09-07T09:29:26.911Z,25.66
2022-09-07T09:32:41.498Z,25.65
2022-09-07T09:35:45.942Z,25.67
2022-09-07T09:38:48.073Z,25.69
2022-09-07T09:41:50.142Z,25.68
2022-09-07T09:44:52.734Z,25.76
2022-09-07T09:47:55.059Z,25.74
2022-09-07T09:54:42.163Z,25.77
2022-09-07T10:01:30.987Z,25.87
2022-09-07T10:04:35.221Z,25.81
2022-09-07T10:07:37.274Z,25.82
2022-09-07T10:10:54.239Z,25.81
2022-09-07T10:13:57.852Z,25.89
2022-09-07T10:17:02.039Z,25.87
2022-09-07T10:20:16.333Z,25.88
2022-09-07T10:23:23.560Z,26.11
2022-09-07T10:26:34.355Z,26.01
2022-09-07T10:29:36.572Z,26.07
2022-09-07T10:33:03.228Z,26.09
2022-09-07T10:36:30.063Z,26.15
2022-09-07T10:39:42.064Z,26.23
2022-09-07T10:43:22.241Z,26.05
2022-09-07T10:47:03.164Z,26.02
2022-09-07T10:50:24.905Z,26.02
2022-09-07T10:53:44.911Z,26.27
2022-09-07T10:57:29.194Z,26.36
2022-09-07T11:00:51.183Z,26.33
2022-09-07T11:04:22.642Z,26.17
2022-09-07T11:07:36.982Z,26.37
2022-09-07T11:11:11.252Z,26.55
2022-09-07T11:14:19.384Z,26.64
2022-09-07T11:17:25.381Z,26.43
2022-09-07T11:20:37.565Z,26.56
2022-09-07T11:23:47.004Z,26.66
2022-09-07T11:26:53.963Z,26.53
2022-09-07T11:30:04.212Z,26.71
2022-09-07T11:33:20.459Z,26.54
2022-09-07T11:36:24.890Z,26.63
2022-09-07T11:39:30.579Z,26.70
2022-09-07T11:42:59.383Z,26.65
2022-09-07T11:46:05.732Z,26.67
2022-09-07T11:49:25.914Z,26.77
2022-09-07T11:52:39.725Z,26.79
2022-09-07T11:55:46.110Z,26.76
2022-09-07T11:58:59.805Z,26.62
2022-09-07T12:02:58.085Z,26.46
2022-09-07T12:06:38.188Z,26.49
2022-09-07T12:09:53.077Z,26.27
2022-09-07T12:13:00.671Z,26.27
2022-09-07T12:16:21.366Z,26.23
2022-09-07T12:19:25.558Z,26.19
2022-09-07T12:22:27.671Z,26.17
2022-09-07T12:25:30.952Z,26.10
2022-09-07T12:28:36.336Z,26.19
2022-09-07T12:31:57.763Z,26.37
2022-09-07T12:35:01.129Z,26.48
2022-09-07T12:38:24.887Z,26.46
2022-09-07T12:41:47.370Z,26.45
2022-09-07T12:45:27.848Z,26.32
2022-09-07T12:48:48.034Z,26.20
2022-09-07T12:52:13.974Z,26.37
2022-09-07T12:55:29.722Z,26.25
2022-09-07T12:58:56.121Z,26.20
2022-09-07T13:02:29.788Z,26.28
2022-09-07T13:05:49.268Z,26.11
2022-09-07T13:08:57.451Z,26.06
2022-09-07T13:12:00.962Z,26.01
2022-09-07T13:15:03.395Z,25.89
2022-09-07T13:18:06.063Z,25.83
2022-09-07T13:21:08.048Z,25.83
2022-09-07T13:27:44.555Z,25.77
2022-09-07T13:31:00.715Z,25.74
2022-09-07T13:34:34.385Z,25.75
2022-09-07T13:38:03.354Z,25.69
2022-09-07T13:41:16.073Z,25.71
2022-09-07T13:44:29.961Z,25.74
2022-09-07T13:47:56.424Z,25.69
2022-09-07T13:51:29.191Z,25.65
2022-09-07T13:54:51.821Z,25.64
2022-09-07T13:58:14.212Z,25.62
2022-09-07T14:01:21.376Z,25.64
2022-09-07T14:04:31.291Z,25.75
2022-09-07T14:07:33.507Z,25.87
2022-09-07T14:10:35.941Z,25.91
2022-09-07T14:13:37.934Z,25.90
2022-09-07T14:17:07.063Z,25.80
2022-09-07T14:20:14.458Z,25.72
2022-09-07T14:23:29.952Z,25.61
2022-09-07T14:26:32.158Z,25.46
2022-09-07T14:29:36.153Z,25.43
2022-09-07T14:32:38.415Z,25.56
2022-09-07T14:35:41.367Z,25.56
2022-09-07T14:42:07.598Z,25.52
2022-09-07T14:45:23.089Z,25.47
2022-09-07T14:48:32.251Z,25.48
2022-09-07T14:51:36.807Z,25.43
2022-09-07T14:54:39.655Z,25.47
2022-09-07T14:57:41.747Z,25.45
2022-09-07T15:00:46.552Z,25.35
2022-09-07T15:03:48.820Z,25.32
2022-09-07T15:07:06.087Z,25.35
2022-09-07T15:10:23.539Z,25.37
2022-09-07T15:13:32.942Z,25.37
2022-09-07T15:16:38.669Z,25.45
2022-09-07T15:19:42.936Z,25.53
2022-09-07T15:22:45.850Z,25.57
2022-09-07T15:25:53.604Z,25.56
2022-09-07T15:29:11.806Z,25.52
2022-09-07T15:32:16.695Z,25.50
2022-09-07T15:35:19.980Z,25.47
2022-09-07T15:41:45.182Z,25.43
2022-09-07T15:44:47.225Z,25.43
2022-09-07T15:47:53.294Z,25.40
2022-09-07T15:54:44.083Z,25.36
2022-09-07T15:57:54.512Z,25.36
2022-09-07T16:04:25.875Z,25.32
2022-09-07T16:08:24.896Z,25.29
2022-09-07T16:10:55.794Z,25.23
2022-09-07T16:14:06.575Z,25.21
2022-09-07T16:20:32.237Z,25.14
2022-09-07T16:23:34.595Z,25.12
2022-09-07T16:26:36.728Z,25.14
2022-09-07T16:29:38.942Z,25.06
2022-09-07T16:32:44.849Z,25.05
2022-09-07T16:36:00.749Z,25.01
2022-09-07T16:39:03.394Z,24.98
2022-09-07T16:42:05.983Z,24.91
2022-09-07T16:48:35.822Z,24.83
2022-09-07T16:51:39.716Z,24.80
2022-09-07T16:54:41.925Z,24.82
2022-09-07T17:01:07.197Z,24.76
2022-09-07T17:04:11.205Z,24.62
2022-09-07T17:07:13.457Z,24.58
2022-09-07T17:10:15.607Z,24.54
2022-09-07T17:13:18.043Z,24.48
2022-09-07T17:16:25.892Z,24.40
2022-09-07T17:19:29.406Z,24.30
2022-09-07T17:22:31.880Z,24.34
2022-09-07T17:25:33.912Z,24.29
2022-09-07T17:28:36.830Z,24.25
2022-09-07T17:35:01.472Z,24.24
2022-09-07T17:39:14.299Z,24.25
2022-09-07T17:41:28.340Z,24.16
2022-09-07T17:44:37.667Z,24.17
2022-09-07T17:47:40.301Z,24.18
2022-09-07T17:50:42.586Z,24.15
2022-09-07T17:53:45.704Z,24.15
2022-09-07T17:56:47.757Z,24.10
2022-09-07T18:03:12.817Z,24.59
2022-09-07T18:06:16.109Z,24.68
2022-09-07T18:09:19.491Z,24.69
2022-09-07T18:12:22.524Z,24.74
2022-09-07T18:15:24.721Z,24.71
2022-09-07T18:18:27.875Z,24.72
2022-09-07T18:21:32.593Z,24.75
2022-09-07T18:24:36.989Z,24.78
2022-09-07T18:27:39.875Z,24.79
2022-09-07T18:30:42.728Z,24.75
2022-09-07T18:33:45.008Z,24.73
2022-09-07T18:36:47.076Z,24.76
2022-09-07T18:39:49.383Z,24.77
2022-09-07T18:42:52.604Z,24.75
2022-09-07T18:46:01.732Z,24.77
2022-09-07T18:49:03.833Z,24.75
2022-09-07T18:55:27.910Z,24.66
2022-09-07T18:58:31.341Z,24.63
2022-09-07T19:01:33.427Z,24.73
2022-09-07T19:07:59.393Z,24.68
2022-09-07T19:11:08.132Z,24.64
2022-09-07T19:14:11.193Z,24.62
2022-09-07T19:17:13.326Z,24.62
2022-09-07T19:20:15.366Z,24.66
2022-09-07T19:23:17.397Z,24.68
2022-09-07T19:26:19.983Z,24.74
2022-09-07T19:29:23.338Z,24.71
2022-09-07T19:32:25.532Z,24.65
2022-09-07T19:35:28.636Z,24.70
2022-09-07T19:38:31.190Z,24.74
2022-09-07T19:41:34.714Z,24.73
2022-09-07T19:44:36.722Z,24.73
2022-09-07T19:47:38.729Z,24.72
2022-09-07T19:50:41.524Z,24.71
2022-09-07T19:53:45.792Z,24.74
2022-09-07T19:56:47.828Z,24.74
2022-09-07T19:59:52.708Z,24.69
2022-09-07T20:02:54.785Z,24.68
2022-09-07T20:05:56.785Z,24.66
2022-09-07T20:09:01.284Z,24.70
2022-09-07T20:12:03.814Z,24.71
2022-09-07T20:15:06.300Z,24.71
2022-09-07T20:18:08.459Z,24.71
2022-09-07T20:21:13.133Z,24.70
2022-09-07T20:24:15.239Z,24.68
2022-09-07T20:27:17.260Z,24.69
2022-09-07T20:30:19.340Z,24.68
2022-09-07T20:33:21.800Z,24.69
2022-09-07T20:36:23.845Z,24.68
2022-09-07T20:39:26.056Z,24.69
2022-09-07T20:42:28.621Z,24.70
2022-09-07T20:45:34.928Z,24.69
2022-09-07T20:48:38.151Z,24.68
2022-09-07T20:51:40.248Z,24.63
2022-09-07T20:54:42.311Z,24.69
2022-09-07T20:57:44.367Z,24.68
2022-09-07T21:00:51.540Z,24.65
2022-09-07T21:03:57.146Z,24.61
2022-09-07T21:06:59.356Z,24.64
2022-09-07T21:10:04.690Z,24.64
2022-09-07T21:13:09.067Z,24.65
2022-09-07T21:16:16.404Z,24.62
2022-09-07T21:19:18.630Z,24.59
2022-09-07T21:22:20.817Z,24.63
2022-09-07T21:25:22.926Z,24.64
2022-09-07T21:28:25.954Z,24.60
2022-09-07T21:31:29.973Z,24.61
2022-09-07T21:34:32.131Z,24.56
2022-09-07T21:37:34.200Z,24.57
2022-09-07T21:40:41.193Z,24.57
2022-09-07T21:43:43.537Z,24.57
2022-09-07T21:46:45.849Z,24.57
2022-09-07T21:49:47.968Z,24.59
2022-09-07T21:52:50.154Z,24.57
2022-09-07T21:55:59.695Z,24.57
2022-09-07T21:59:02.750Z,24.57
2022-09-07T22:02:05.047Z,24.57
2022-09-07T22:05:07.907Z,24.56
2022-09-07T22:08:10.127Z,24.53
2022-09-07T22:11:18.516Z,24.53
2022-09-07T22:14:21.463Z,24.50
2022-09-07T22:17:23.519Z,24.53
2022-09-07T22:20:25.608Z,24.54
2022-09-07T22:23:30.818Z,24.53
2022-09-07T22:26:39.642Z,24.54
2022-09-07T22:29:41.657Z,24.49
2022-09-07T22:32:50.831Z,24.48
2022-09-07T22:35:52.849Z,24.49
2022-09-07T22:38:57.989Z,24.50
2022-09-07T22:42:00.067Z,24.50
2022-09-07T22:45:02.102Z,24.49
2022-09-07T22:48:05.922Z,24.48
2022-09-07T22:51:08.901Z,24.48
2022-09-07T22:54:10.958Z,24.48
2022-09-07T22:57:12.996Z,24.47
2022-09-07T23:00:15.309Z,24.48
2022-09-07T23:03:20.428Z,24.47
2022-09-07T23:06:28.088Z,24.44
2022-09-07T23:09:30.204Z,24.42
2022-09-07T23:12:32.417Z,24.36
2022-09-07T23:15:36.543Z,24.36
2022-09-07T23:18:40.672Z,24.41
2022-09-07T23:21:43.451Z,24.41
2022-09-07T23:24:45.542Z,24.43
2022-09-07T23:27:47.733Z,24.40
2022-09-07T23:30:51.447Z,24.41
2022-09-07T23:33:53.561Z,24.39
2022-09-07T23:36:55.725Z,24.38
2022-09-07T23:39:57.945Z,24.39
2022-09-07T23:43:00.745Z,24.39
2022-09-07T23:46:02.864Z,24.36
2022-09-07T23:49:05.312Z,24.38
2022-09-07T23:52:07.360Z,24.38
2022-09-07T23:55:11.067Z,24.35
2022-09-07T23:58:13.207Z,24.35
